createdAt,value
2018-05-21T00:01:57.706Z,62.30
2018-05-21T00:04:25.237Z,62.60
2018-05-21T00:06:52.806Z,63.20
2018-05-21T00:09:20.321Z,63.70
2018-05-21T00:11:47.850Z,63.80
2018-05-21T00:14:15.444Z,63.90
2018-05-21T00:16:43.773Z,64.90
2018-05-21T00:19:11.420Z,64.90
2018-05-21T00:21:38.944Z,65.40
2018-05-21T00:24:06.508Z,65.70
2018-05-21T00:26:34.810Z,66.30
2018-05-21T00:29:02.324Z,66.20
2018-05-21T00:31:30.628Z,67.20
2018-05-21T00:33:58.152Z,67.10
2018-05-21T00:36:25.673Z,67.40
2018-05-21T00:38:53.211Z,67.30
2018-05-21T00:41:20.722Z,67.50
2018-05-21T00:43:49.006Z,67.70
2018-05-21T00:46:16.534Z,67.60
2018-05-21T00:48:44.232Z,68.10
2018-05-21T00:51:12.543Z,68.10
2018-05-21T00:53:40.108Z,68.00
2018-05-21T00:56:07.638Z,68.30
2018-05-21T00:58:35.184Z,68.50
2018-05-21T01:01:02.708Z,68.20
2018-05-21T01:03:30.222Z,68.40
2018-05-21T01:05:57.798Z,68.00
2018-05-21T01:08:25.442Z,68.60
2018-05-21T01:10:52.962Z,68.20
2018-05-21T01:13:20.511Z,68.40
2018-05-21T01:15:48.141Z,68.30
2018-05-21T01:18:15.688Z,68.80
2018-05-21T01:20:43.194Z,67.60
2018-05-21T01:23:10.748Z,68.20
2018-05-21T01:25:38.278Z,68.80
2018-05-21T01:28:05.922Z,68.40
2018-05-21T01:30:33.452Z,68.20
2018-05-21T01:33:01.012Z,68.50
2018-05-21T01:35:28.522Z,67.90
2018-05-21T01:37:56.224Z,68.10
2018-05-21T01:40:23.773Z,67.90
2018-05-21T01:42:51.394Z,67.90
2018-05-21T01:45:18.921Z,68.10
2018-05-21T01:47:46.448Z,68.20
2018-05-21T01:50:13.987Z,68.20
2018-05-21T01:52:41.551Z,68.10
2018-05-21T01:55:09.240Z,68.00
2018-05-21T01:57:37.521Z,67.90
2018-05-21T02:00:05.848Z,68.00
2018-05-21T02:02:33.454Z,68.00
2018-05-21T02:05:01.746Z,68.50
2018-05-21T02:07:29.259Z,68.50
2018-05-21T02:09:57.016Z,68.70
2018-05-21T02:12:24.545Z,68.50
2018-05-21T02:14:52.165Z,68.70
2018-05-21T02:17:20.590Z,69.20
2018-05-21T02:19:48.091Z,69.20
2018-05-21T02:22:15.634Z,69.50
2018-05-21T02:24:43.284Z,69.30
2018-05-21T02:27:10.813Z,69.50
2018-05-21T02:29:38.333Z,69.50
2018-05-21T02:32:05.858Z,69.10
2018-05-21T02:34:33.398Z,70.40
2018-05-21T02:37:00.918Z,69.90
2018-05-21T02:39:29.204Z,70.00
2018-05-21T02:41:56.781Z,70.00
2018-05-21T02:44:24.310Z,70.30
2018-05-21T02:46:52.615Z,70.60
2018-05-21T02:49:20.153Z,70.40
2018-05-21T02:51:47.702Z,70.40
2018-05-21T02:54:16.001Z,70.80
2018-05-21T02:56:43.537Z,70.80
2018-05-21T02:59:11.115Z,71.00
2018-05-21T03:01:38.658Z,71.20
2018-05-21T03:04:06.189Z,71.10
2018-05-21T03:06:34.508Z,71.10
2018-05-21T03:09:02.128Z,71.10
2018-05-21T03:11:29.687Z,71.10
2018-05-21T03:13:57.203Z,71.20
2018-05-21T03:16:24.736Z,71.20
2018-05-21T03:18:53.196Z,71.40
2018-05-21T03:21:20.705Z,71.40
2018-05-21T03:23:48.249Z,71.80
2018-05-21T03:26:15.764Z,71.70
2018-05-21T03:28:43.299Z,72.10
2018-05-21T03:31:10.850Z,72.20
2018-05-21T03:33:38.368Z,72.00
2018-05-21T03:36:05.885Z,72.30
2018-05-21T03:38:33.391Z,72.30
2018-05-21T03:41:00.908Z,73.20
2018-05-21T03:43:28.437Z,72.60
2018-05-21T03:45:55.981Z,72.90
2018-05-21T03:48:23.501Z,73.10
2018-05-21T03:50:51.808Z,73.50
2018-05-21T03:53:19.320Z,73.50
2018-05-21T03:55:46.859Z,73.50
2018-05-21T03:58:26.153Z,73.60
2018-05-21T04:01:05.527Z,73.90
2018-05-21T04:06:34.501Z,73.90
2018-05-21T04:09:02.995Z,74.20
2018-05-21T04:11:30.761Z,74.20
2018-05-21T04:13:58.293Z,74.30
2018-05-21T04:16:26.584Z,74.40
2018-05-21T04:18:54.153Z,74.40
2018-05-21T04:21:21.652Z,74.90
2018-05-21T04:23:49.193Z,74.70
2018-05-21T04:26:16.720Z,74.80
2018-05-21T04:28:44.264Z,75.00
2018-05-21T04:31:11.876Z,75.00
2018-05-21T04:33:39.396Z,75.30
2018-05-21T04:36:06.942Z,75.20
2018-05-21T04:38:34.470Z,74.70
2018-05-21T04:41:02.175Z,75.10
2018-05-21T04:43:29.718Z,75.60
2018-05-21T04:45:57.308Z,75.30
2018-05-21T04:48:24.834Z,75.20
2018-05-21T04:50:52.527Z,75.70
2018-05-21T04:53:20.262Z,76.40
2018-05-21T04:55:48.658Z,76.60
2018-05-21T04:58:16.172Z,75.80
2018-05-21T05:00:43.688Z,75.50
2018-05-21T05:03:11.216Z,75.80
2018-05-21T05:05:38.769Z,75.80
2018-05-21T05:08:06.304Z,75.80
2018-05-21T05:10:33.868Z,75.80
2018-05-21T05:13:01.396Z,75.00
2018-05-21T05:15:28.925Z,75.40
2018-05-21T05:17:56.438Z,75.80
2018-05-21T05:20:23.975Z,75.60
2018-05-21T05:22:51.514Z,75.90
2018-05-21T05:25:19.040Z,75.60
2018-05-21T05:27:47.316Z,75.00
2018-05-21T05:30:15.617Z,74.70
2018-05-21T05:32:43.294Z,74.70
2018-05-21T05:35:10.923Z,75.70
2018-05-21T05:37:38.447Z,75.00
2018-05-21T05:40:07.476Z,75.00
2018-05-21T05:42:34.997Z,75.10
2018-05-21T05:45:02.517Z,75.10
2018-05-21T05:47:30.220Z,75.40
2018-05-21T05:49:58.038Z,75.70
2018-05-21T05:52:25.703Z,75.40
2018-05-21T05:54:53.271Z,75.90
2018-05-21T05:57:20.799Z,75.60
2018-05-21T05:59:48.483Z,76.10
2018-05-21T06:02:16.016Z,76.10
2018-05-21T06:04:43.632Z,76.10
2018-05-21T06:07:11.179Z,75.10
2018-05-21T06:09:38.734Z,75.60
2018-05-21T06:12:06.279Z,75.50
2018-05-21T06:14:34.635Z,76.10
2018-05-21T06:17:02.186Z,76.10
2018-05-21T06:19:30.496Z,75.30
2018-05-21T06:21:58.116Z,75.20
2018-05-21T06:24:26.439Z,76.30
2018-05-21T06:26:54.065Z,76.30
2018-05-21T06:29:22.373Z,76.00
2018-05-21T06:31:49.904Z,76.00
2018-05-21T06:34:17.530Z,76.00
2018-05-21T06:36:45.759Z,75.90
2018-05-21T06:39:13.302Z,75.90
2018-05-21T06:41:40.851Z,76.30
2018-05-21T06:44:09.156Z,76.20
2018-05-21T06:46:36.679Z,76.10
2018-05-21T06:49:04.214Z,75.30
2018-05-21T06:51:31.816Z,75.30
2018-05-21T06:53:59.325Z,75.20
2018-05-21T06:56:26.844Z,74.90
2018-05-21T06:58:54.373Z,74.30
2018-05-21T07:01:22.113Z,74.00
2018-05-21T07:03:49.659Z,73.70
2018-05-21T07:06:17.181Z,74.60
2018-05-21T07:08:44.721Z,75.60
2018-05-21T07:11:12.996Z,74.30
2018-05-21T07:13:41.277Z,74.50
2018-05-21T07:16:08.833Z,74.50
2018-05-21T07:18:36.490Z,73.60
2018-05-21T07:21:04.240Z,74.30
2018-05-21T07:23:32.662Z,73.10
2018-05-21T07:26:00.185Z,73.00
2018-05-21T07:28:28.461Z,74.70
2018-05-21T07:30:56.018Z,74.70
2018-05-21T07:33:23.557Z,74.10
2018-05-21T07:35:51.180Z,73.60
2018-05-21T07:38:20.109Z,73.10
2018-05-21T07:40:47.723Z,74.10
2018-05-21T07:43:15.272Z,74.50
2018-05-21T07:45:42.797Z,72.50
2018-05-21T07:48:10.320Z,72.00
2018-05-21T07:50:37.852Z,72.40
2018-05-21T07:53:05.413Z,72.80
2018-05-21T07:55:32.953Z,71.40
2018-05-21T07:58:00.498Z,70.80
2018-05-21T08:00:28.269Z,71.30
2018-05-21T08:02:56.773Z,68.00
2018-05-21T08:05:24.326Z,68.00
2018-05-21T08:07:51.865Z,68.00
2018-05-21T08:10:20.166Z,69.40
2018-05-21T08:12:47.691Z,69.40
2018-05-21T08:15:15.300Z,67.00
2018-05-21T08:17:42.862Z,67.40
2018-05-21T08:20:10.409Z,67.10
2018-05-21T08:22:38.035Z,66.40
2018-05-21T08:25:06.443Z,63.70
2018-05-21T08:27:34.006Z,63.70
2018-05-21T08:30:01.548Z,63.70
2018-05-21T08:32:29.100Z,62.90
2018-05-21T08:34:57.596Z,59.50
2018-05-21T08:37:25.174Z,59.50
2018-05-21T08:39:52.757Z,59.50
2018-05-21T08:42:20.284Z,57.30
2018-05-21T08:44:47.864Z,57.40
2018-05-21T08:47:15.602Z,57.80
2018-05-21T08:49:43.158Z,56.70
2018-05-21T08:52:10.706Z,56.50
2018-05-21T08:54:38.755Z,57.90
2018-05-21T08:57:06.283Z,56.90
2018-05-21T08:59:33.832Z,56.70
2018-05-21T09:02:01.570Z,57.00
2018-05-21T09:04:29.217Z,55.60
2018-05-21T09:06:56.766Z,55.50
2018-05-21T09:09:25.263Z,55.60
2018-05-21T09:11:53.537Z,54.10
2018-05-21T09:14:21.143Z,54.10
2018-05-21T09:16:48.671Z,52.50
2018-05-21T09:19:16.204Z,53.00
2018-05-21T09:21:43.720Z,53.50
2018-05-21T09:24:11.240Z,53.60
2018-05-21T09:26:38.785Z,53.50
2018-05-21T09:29:06.329Z,52.40
2018-05-21T09:31:34.744Z,52.50
2018-05-21T09:34:02.352Z,52.40
2018-05-21T09:36:31.478Z,52.70
2018-05-21T09:38:59.007Z,52.70
2018-05-21T09:41:27.313Z,52.00
2018-05-21T09:43:54.939Z,52.00
2018-05-21T09:46:22.486Z,53.30
2018-05-21T09:48:50.048Z,53.50
2018-05-21T09:51:17.805Z,54.00
2018-05-21T09:53:45.332Z,53.50
2018-05-21T09:56:12.850Z,51.00
2018-05-21T09:58:41.164Z,49.90
2018-05-21T10:01:08.722Z,49.90
2018-05-21T10:03:36.274Z,50.60
2018-05-21T10:06:03.808Z,50.50
2018-05-21T10:08:31.355Z,50.60
2018-05-21T10:10:59.851Z,51.50
2018-05-21T10:13:28.148Z,52.80
2018-05-21T10:15:55.714Z,52.80
2018-05-21T10:18:23.252Z,51.60
2018-05-21T10:20:51.558Z,51.40
2018-05-21T10:23:19.413Z,51.40
2018-05-21T10:25:46.937Z,52.90
2018-05-21T10:28:14.496Z,50.70
2018-05-21T10:30:42.832Z,51.90
2018-05-21T10:33:10.384Z,51.90
2018-05-21T10:35:37.896Z,51.40
2018-05-21T10:38:06.183Z,51.50
2018-05-21T10:40:33.696Z,51.50
2018-05-21T10:43:01.294Z,49.70
2018-05-21T10:45:29.708Z,50.40
2018-05-21T10:47:57.248Z,50.30
2018-05-21T10:50:24.787Z,50.40
2018-05-21T10:52:52.324Z,49.80
2018-05-21T10:55:19.861Z,51.70
2018-05-21T10:57:47.413Z,49.90
2018-05-21T11:00:14.970Z,47.60
2018-05-21T11:02:42.496Z,49.80
2018-05-21T11:05:10.033Z,48.60
2018-05-21T11:07:38.335Z,49.70
2018-05-21T11:10:05.850Z,49.70
2018-05-21T11:12:33.446Z,47.50
2018-05-21T11:15:01.854Z,48.80
2018-05-21T11:17:29.439Z,48.70
2018-05-21T11:19:57.738Z,49.20
2018-05-21T11:22:25.307Z,48.90
2018-05-21T11:24:53.598Z,52.00
2018-05-21T11:27:21.122Z,51.30
2018-05-21T11:29:48.657Z,49.10
2018-05-21T11:32:16.305Z,49.20
2018-05-21T11:34:43.957Z,50.10
2018-05-21T11:37:11.491Z,45.70
2018-05-21T11:39:39.016Z,48.40
2018-05-21T11:42:08.066Z,47.40
2018-05-21T11:44:35.624Z,47.30
2018-05-21T11:47:03.182Z,48.80
2018-05-21T11:49:30.746Z,48.40
2018-05-21T11:51:58.265Z,48.30
2018-05-21T11:54:26.557Z,44.10
2018-05-21T11:56:54.204Z,44.10
2018-05-21T11:59:22.507Z,46.10
2018-05-21T12:01:50.140Z,46.10
2018-05-21T12:04:18.449Z,46.50
2018-05-21T12:06:45.980Z,46.50
2018-05-21T12:09:13.536Z,45.60
2018-05-21T12:11:41.841Z,45.30
2018-05-21T12:14:09.377Z,45.30
2018-05-21T12:16:36.909Z,44.50
2018-05-21T12:19:05.214Z,44.40
2018-05-21T12:21:32.758Z,44.50
2018-05-21T12:24:00.287Z,45.30
2018-05-21T12:26:27.827Z,45.50
2018-05-21T12:28:55.372Z,46.40
2018-05-21T12:31:22.917Z,43.20
2018-05-21T12:33:50.458Z,44.10
2018-05-21T12:36:18.000Z,44.70
2018-05-21T12:38:45.651Z,43.80
2018-05-21T12:41:13.218Z,41.10
2018-05-21T12:43:40.798Z,43.90
2018-05-21T12:46:09.099Z,43.60
2018-05-21T12:48:36.664Z,43.60
2018-05-21T12:51:04.257Z,41.60
2018-05-21T12:53:31.763Z,42.20
2018-05-21T12:55:59.285Z,44.10
2018-05-21T12:58:27.716Z,42.70
2018-05-21T13:00:55.249Z,42.80
2018-05-21T13:03:23.661Z,41.70
2018-05-21T13:05:51.170Z,41.70
2018-05-21T13:08:19.595Z,43.70
2018-05-21T13:10:47.318Z,43.70
2018-05-21T13:13:15.613Z,40.70
2018-05-21T13:15:43.142Z,40.60
2018-05-21T13:18:12.202Z,39.60
2018-05-21T13:20:39.794Z,39.50
2018-05-21T13:23:07.276Z,39.80
2018-05-21T13:25:35.605Z,40.00
2018-05-21T13:28:03.215Z,39.90
2018-05-21T13:30:30.764Z,40.80
2018-05-21T13:32:58.330Z,40.30
2018-05-21T13:35:26.786Z,40.10
2018-05-21T13:37:55.097Z,38.90
2018-05-21T13:40:22.647Z,39.00
2018-05-21T13:42:50.190Z,38.70
2018-05-21T13:45:18.466Z,37.10
2018-05-21T13:47:46.751Z,37.20
2018-05-21T13:50:15.060Z,37.20
2018-05-21T13:52:42.612Z,37.20
2018-05-21T13:55:10.142Z,35.90
2018-05-21T13:57:38.414Z,35.20
2018-05-21T14:00:06.834Z,33.70
2018-05-21T14:02:34.365Z,33.70
2018-05-21T14:05:02.783Z,35.50
2018-05-21T14:07:30.428Z,35.30
2018-05-21T14:09:57.953Z,34.10
2018-05-21T14:12:26.304Z,33.70
2018-05-21T14:14:53.824Z,33.60
2018-05-21T14:17:21.435Z,34.00
2018-05-21T14:19:49.762Z,31.50
2018-05-21T14:22:17.291Z,31.40
2018-05-21T14:24:45.580Z,32.60
2018-05-21T14:27:13.224Z,32.10
2018-05-21T14:29:41.566Z,33.00
2018-05-21T14:32:09.052Z,33.00
2018-05-21T14:34:36.595Z,32.80
2018-05-21T14:37:04.138Z,32.90
2018-05-21T14:39:31.677Z,33.70
2018-05-21T14:41:59.183Z,32.00
2018-05-21T14:44:27.598Z,31.00
2018-05-21T14:46:55.131Z,31.10
2018-05-21T14:49:23.439Z,31.90
2018-05-21T14:51:50.991Z,31.90
2018-05-21T14:54:18.519Z,30.00
2018-05-21T14:56:46.833Z,29.70
2018-05-21T14:59:14.374Z,29.70
2018-05-21T15:01:41.891Z,30.10
2018-05-21T15:04:09.426Z,31.90
2018-05-21T15:06:36.974Z,32.70
2018-05-21T15:09:04.636Z,32.30
2018-05-21T15:11:32.190Z,30.70
2018-05-21T15:13:59.769Z,31.10
2018-05-21T15:16:27.296Z,31.80
2018-05-21T15:18:54.819Z,30.20
2018-05-21T15:21:22.361Z,30.00
2018-05-21T15:23:49.907Z,29.70
2018-05-21T15:26:17.445Z,29.10
2018-05-21T15:28:44.992Z,31.30
2018-05-21T15:31:12.532Z,30.20
2018-05-21T15:33:40.144Z,30.70
2018-05-21T15:36:07.746Z,31.80
2018-05-21T15:38:36.051Z,31.10
2018-05-21T15:41:03.638Z,31.10
2018-05-21T15:43:31.241Z,31.80
2018-05-21T15:45:58.793Z,31.60
2018-05-21T15:48:27.104Z,31.00
2018-05-21T15:50:54.676Z,31.00
2018-05-21T15:53:22.224Z,31.90
2018-05-21T15:55:49.786Z,29.80
2018-05-21T15:58:17.345Z,30.30
2018-05-21T16:00:44.893Z,29.40
2018-05-21T16:03:12.478Z,28.80
2018-05-21T16:05:40.021Z,29.00
2018-05-21T16:08:07.554Z,29.50
2018-05-21T16:10:35.855Z,29.60
2018-05-21T16:13:03.362Z,29.60
2018-05-21T16:15:31.284Z,30.30
2018-05-21T16:17:58.839Z,29.90
2018-05-21T16:20:26.379Z,29.90
2018-05-21T16:22:53.908Z,30.60
2018-05-21T16:25:21.502Z,30.50
2018-05-21T16:27:49.038Z,31.30
2018-05-21T16:30:17.655Z,29.10
2018-05-21T16:32:45.167Z,29.10
2018-05-21T16:35:12.735Z,29.30
2018-05-21T16:37:40.283Z,29.30
2018-05-21T16:40:07.816Z,29.70
2018-05-21T16:42:35.335Z,31.10
2018-05-21T16:45:02.872Z,30.80
2018-05-21T16:47:31.171Z,30.50
2018-05-21T16:49:58.713Z,30.40
2018-05-21T16:52:26.243Z,30.40
2018-05-21T16:54:53.779Z,30.80
2018-05-21T16:57:21.318Z,29.50
2018-05-21T16:59:48.869Z,30.30
2018-05-21T17:02:16.404Z,30.00
2018-05-21T17:04:43.951Z,30.80
2018-05-21T17:07:12.285Z,32.70
2018-05-21T17:09:39.817Z,32.10
2018-05-21T17:12:07.369Z,31.00
2018-05-21T17:14:35.675Z,31.20
2018-05-21T17:17:03.220Z,31.10
2018-05-21T17:19:30.765Z,30.20
2018-05-21T17:21:58.329Z,31.90
2018-05-21T17:24:25.913Z,30.70
2018-05-21T17:26:53.440Z,32.50
2018-05-21T17:29:21.020Z,32.50
2018-05-21T17:31:48.580Z,32.30
2018-05-21T17:34:16.114Z,32.30
2018-05-21T17:36:43.696Z,31.00
2018-05-21T17:39:11.224Z,31.00
2018-05-21T17:41:39.550Z,32.60
2018-05-21T17:44:07.155Z,32.60
2018-05-21T17:46:35.456Z,32.20
2018-05-21T17:49:03.023Z,32.10
2018-05-21T17:51:30.551Z,33.30
2018-05-21T17:53:58.966Z,32.80
2018-05-21T17:56:26.607Z,32.80
2018-05-21T17:58:54.411Z,32.80
2018-05-21T18:01:21.964Z,33.60
2018-05-21T18:03:49.680Z,32.50
2018-05-21T18:06:17.978Z,33.30
2018-05-21T18:08:45.574Z,33.20
2018-05-21T18:11:13.313Z,34.80
2018-05-21T18:13:41.032Z,34.40
2018-05-21T18:16:08.548Z,34.80
2018-05-21T18:18:36.137Z,34.90
2018-05-21T18:21:03.659Z,34.70
2018-05-21T18:23:31.183Z,34.90
2018-05-21T18:25:59.495Z,36.40
2018-05-21T18:28:27.042Z,36.30
2018-05-21T18:30:54.588Z,37.00
2018-05-21T18:33:22.164Z,36.80
2018-05-21T18:35:49.685Z,37.70
2018-05-21T18:38:17.993Z,38.50
2018-05-21T18:40:45.539Z,38.40
2018-05-21T18:43:13.288Z,39.00
2018-05-21T18:45:41.671Z,39.30
2018-05-21T18:48:09.240Z,39.30
2018-05-21T18:50:36.758Z,40.60
2018-05-21T18:53:04.291Z,40.70
2018-05-21T18:55:31.830Z,41.10
2018-05-21T18:57:59.396Z,40.80
2018-05-21T19:00:27.684Z,41.80
2018-05-21T19:02:55.225Z,41.80
2018-05-21T19:05:22.764Z,41.70
2018-05-21T19:07:50.315Z,42.20
2018-05-21T19:10:18.626Z,42.60
2018-05-21T19:12:46.158Z,42.60
2018-05-21T19:15:13.792Z,43.30
2018-05-21T19:17:41.247Z,43.60
2018-05-21T19:20:08.892Z,43.60
2018-05-21T19:22:36.718Z,43.90
2018-05-21T19:25:04.284Z,44.30
2018-05-21T19:27:31.824Z,44.50
2018-05-21T19:29:59.369Z,44.70
2018-05-21T19:32:26.912Z,44.80
2018-05-21T19:34:55.278Z,46.30
2018-05-21T19:37:22.802Z,46.20
2018-05-21T19:39:50.346Z,46.30
2018-05-21T19:42:17.879Z,46.60
2018-05-21T19:44:45.476Z,46.10
2018-05-21T19:47:13.039Z,47.00
2018-05-21T19:49:40.593Z,47.30
2018-05-21T19:52:08.153Z,47.60
2018-05-21T19:54:35.707Z,47.60
2018-05-21T19:57:03.244Z,48.00
2018-05-21T19:59:30.793Z,48.00
2018-05-21T20:01:59.109Z,48.80
2018-05-21T20:04:26.660Z,48.80
2018-05-21T20:06:54.217Z,49.10
2018-05-21T20:09:21.754Z,49.30
2018-05-21T20:11:49.311Z,49.30
2018-05-21T20:14:16.865Z,49.80
2018-05-21T20:16:44.449Z,49.70
2018-05-21T20:19:11.999Z,49.90
2018-05-21T20:21:39.538Z,50.20
2018-05-21T20:24:07.215Z,50.40
2018-05-21T20:26:34.762Z,50.70
2018-05-21T20:29:02.344Z,50.80
2018-05-21T20:31:29.943Z,51.10
2018-05-21T20:33:57.489Z,51.20
2018-05-21T20:36:25.001Z,51.20
2018-05-21T20:38:52.553Z,51.50
2018-05-21T20:41:20.838Z,51.70
2018-05-21T20:43:49.155Z,51.70
2018-05-21T20:46:16.716Z,51.70
2018-05-21T20:48:44.346Z,52.10
2018-05-21T20:51:11.823Z,51.60
2018-05-21T20:53:39.375Z,52.20
2018-05-21T20:56:06.938Z,51.60
2018-05-21T20:58:34.601Z,51.70
2018-05-21T21:01:02.127Z,52.30
2018-05-21T21:03:30.443Z,52.20
2018-05-21T21:05:58.001Z,52.20
2018-05-21T21:08:25.524Z,52.00
2018-05-21T21:10:53.833Z,52.40
2018-05-21T21:13:21.372Z,52.40
2018-05-21T21:15:48.916Z,52.10
2018-05-21T21:18:17.207Z,52.70
2018-05-21T21:20:44.781Z,52.70
2018-05-21T21:23:12.309Z,53.00
2018-05-21T21:25:40.587Z,52.80
2018-05-21T21:28:08.893Z,52.90
2018-05-21T21:30:36.420Z,52.90
2018-05-21T21:33:03.952Z,53.30
2018-05-21T21:35:31.643Z,52.90
2018-05-21T21:37:59.943Z,53.60
2018-05-21T21:40:27.479Z,53.60
2018-05-21T21:42:55.005Z,53.70
2018-05-21T21:45:22.548Z,53.80
2018-05-21T21:47:50.090Z,54.20
2018-05-21T21:50:17.741Z,54.30
2018-05-21T21:52:46.027Z,54.10
2018-05-21T21:55:13.548Z,54.10
2018-05-21T21:57:41.072Z,54.40
2018-05-21T22:00:08.717Z,54.80
2018-05-21T22:02:36.251Z,55.00
2018-05-21T22:05:03.769Z,54.70
2018-05-21T22:07:32.102Z,55.90
2018-05-21T22:09:59.645Z,55.20
2018-05-21T22:12:27.188Z,55.60
2018-05-21T22:14:54.717Z,55.70
2018-05-21T22:17:22.257Z,55.60
2018-05-21T22:19:49.805Z,55.60
2018-05-21T22:22:17.369Z,56.20
2018-05-21T22:24:44.884Z,56.40
2018-05-21T22:27:12.403Z,56.30
2018-05-21T22:29:41.447Z,56.20
2018-05-21T22:32:08.976Z,56.20
2018-05-21T22:34:36.502Z,56.80
2018-05-21T22:37:04.081Z,56.70
2018-05-21T22:39:31.595Z,57.00
2018-05-21T22:41:59.219Z,57.20
2018-05-21T22:44:26.751Z,56.90
2018-05-21T22:46:54.295Z,57.80
2018-05-21T22:49:21.918Z,58.10
2018-05-21T22:51:49.458Z,58.20
2018-05-21T22:54:28.971Z,58.40
2018-05-21T22:56:56.520Z,58.50
2018-05-21T22:59:24.097Z,58.90
2018-05-21T23:01:51.802Z,58.50
2018-05-21T23:04:19.339Z,58.50
2018-05-21T23:06:46.881Z,59.20
2018-05-21T23:09:14.433Z,59.10
2018-05-21T23:11:42.738Z,59.40
2018-05-21T23:14:10.262Z,59.20
2018-05-21T23:16:37.811Z,59.30
2018-05-21T23:19:06.120Z,59.50
2018-05-21T23:21:34.407Z,60.00
2018-05-21T23:24:01.928Z,60.00
2018-05-21T23:26:29.457Z,60.40
2018-05-21T23:28:56.983Z,60.00
2018-05-21T23:31:24.611Z,60.20
2018-05-21T23:33:52.155Z,61.30
2018-05-21T23:36:19.709Z,60.80
2018-05-21T23:38:47.255Z,60.80
2018-05-21T23:41:14.790Z,60.80
2018-05-21T23:43:42.318Z,61.60
2018-05-21T23:46:09.847Z,61.40
2018-05-21T23:48:37.544Z,62.00
2018-05-21T23:51:05.102Z,62.30
2018-05-21T23:53:32.690Z,62.60
2018-05-21T23:56:00.240Z,62.60
2018-05-21T23:58:27.774Z,63.10
